Time;durP1;ratioP1;P1;durP2;ratioP2;P2;SDS_P1;SDS_P2;PMS_P1;PMS_P2;Temp;Humidity;BMP_temperature;BMP_pressure;BME280_temperature;BME280_humidity;BME280_pressure;Samples;Min_cycle;Max_cycle;Signal;HPM_P1;HPM_P2
2023/10/01 00:00:17;;;;;;;;;;;20.30;68.40;;;;;;5096402;28;19950;-57
2023/10/01 00:02:44;;;;;;;;;;;20.30;68.40;;;;;;5114106;28;20217;-56
2023/10/01 00:05:10;;;;;;;;;;;20.20;68.30;;;;;;5113560;28;20002;-56
2023/10/01 00:07:37;;;;;;;;;;;20.20;68.40;;;;;;5113046;28;19941;-54
2023/10/01 00:10:10;;;;;;;;;;;20.20;68.30;;;;;;5113177;28;20429;-55
2023/10/01 00:12:39;;;;;;;;;;;20.20;68.30;;;;;;5113044;28;19999;-54
2023/10/01 00:15:05;;;;;;;;;;;20.20;68.30;;;;;;5114253;28;20371;-55
2023/10/01 00:17:31;;;;;;;;;;;20.20;68.40;;;;;;5096087;28;19912;-55
2023/10/01 00:19:57;;;;;;;;;;;20.20;68.40;;;;;;5114132;28;19965;-54
2023/10/01 00:22:23;;;;;;;;;;;20.20;68.30;;;;;;5114190;28;19964;-55
2023/10/01 00:24:48;;;;;;;;;;;20.20;68.20;;;;;;5114054;28;19908;-55
2023/10/01 00:27:14;;;;;;;;;;;20.20;68.20;;;;;;5114071;28;19962;-54
2023/10/01 00:29:39;;;;;;;;;;;20.20;68.20;;;;;;5114033;28;20057;-55
2023/10/01 00:32:05;;;;;;;;;;;20.20;68.10;;;;;;5114120;28;19931;-55
2023/10/01 00:34:30;;;;;;;;;;;20.20;68.00;;;;;;5114134;28;20002;-55
2023/10/01 00:36:56;;;;;;;;;;;20.20;68.00;;;;;;5113859;28;19912;-55
2023/10/01 00:39:21;;;;;;;;;;;20.20;68.00;;;;;;5114116;28;19911;-55
2023/10/01 00:41:47;;;;;;;;;;;20.20;68.00;;;;;;5113806;28;19908;-54
2023/10/01 00:44:13;;;;;;;;;;;20.20;68.00;;;;;;5113948;28;19912;-55
2023/10/01 00:46:39;;;;;;;;;;;20.10;67.90;;;;;;5113836;28;19912;-53
2023/10/01 00:49:05;;;;;;;;;;;20.10;67.90;;;;;;5113734;28;19956;-53
2023/10/01 00:51:32;;;;;;;;;;;20.20;68.00;;;;;;5113595;28;20394;-56
2023/10/01 00:53:58;;;;;;;;;;;20.20;68.10;;;;;;5113842;28;19912;-55
2023/10/01 00:56:25;;;;;;;;;;;20.20;68.00;;;;;;5113680;28;20380;-55
2023/10/01 00:58:51;;;;;;;;;;;20.20;68.20;;;;;;5113702;28;20380;-55
2023/10/01 01:01:16;;;;;;;;;;;20.20;68.20;;;;;;5095682;28;20025;-55
2023/10/01 01:03:42;;;;;;;;;;;20.20;68.20;;;;;;5113742;28;19931;-54
2023/10/01 01:06:17;;;;;;;;;;;20.20;68.30;;;;;;5113477;28;20379;-54
2023/10/01 01:08:56;;;;;;;;;;;20.20;68.30;;;;;;5094718;28;20403;-55
2023/10/01 01:11:22;;;;;;;;;;;20.20;68.30;;;;;;5113567;28;19908;-55
2023/10/01 01:13:50;;;;;;;;;;;20.20;68.40;;;;;;5113367;28;19907;-55
2023/10/01 01:16:19;;;;;;;;;;;20.20;68.40;;;;;;5113449;28;20385;-53
2023/10/01 01:18:46;;;;;;;;;;;20.20;68.40;;;;;;5113288;28;20291;-54
2023/10/01 01:21:13;;;;;;;;;;;20.20;68.50;;;;;;5113416;28;20022;-55
2023/10/01 01:23:41;;;;;;;;;;;20.20;68.60;;;;;;5095010;28;20283;-55
2023/10/01 01:26:07;;;;;;;;;;;20.20;68.70;;;;;;5113332;28;19908;-54
2023/10/01 01:28:35;;;;;;;;;;;20.10;68.60;;;;;;5113349;28;19937;-54
2023/10/01 01:31:01;;;;;;;;;;;20.10;68.90;;;;;;5113280;28;19962;-55
2023/10/01 01:33:31;;;;;;;;;;;20.10;68.90;;;;;;5095340;28;19908;-55
2023/10/01 01:36:06;;;;;;;;;;;20.10;69.00;;;;;;5113242;28;19914;-54
2023/10/01 01:38:32;;;;;;;;;;;20.10;69.10;;;;;;5113169;28;19919;-55
2023/10/01 01:40:57;;;;;;;;;;;20.10;69.10;;;;;;5113184;28;19979;-55
2023/10/01 01:43:23;;;;;;;;;;;20.10;69.20;;;;;;5113172;28;19961;-54
2023/10/01 01:45:54;;;;;;;;;;;20.10;69.30;;;;;;5113383;28;19983;-55
2023/10/01 01:48:30;;;;;;;;;;;20.10;69.30;;;;;;5095398;28;19908;-54
2023/10/01 01:50:57;;;;;;;;;;;20.10;69.40;;;;;;5095030;28;19948;-55
2023/10/01 01:53:35;;;;;;;;;;;20.10;69.30;;;;;;5113117;28;19908;-55
2023/10/01 01:56:10;;;;;;;;;;;20.10;69.40;;;;;;5113096;28;19931;-55
2023/10/01 01:58:36;;;;;;;;;;;20.10;69.40;;;;;;5112994;28;20421;-53
2023/10/01 02:01:08;;;;;;;;;;;20.10;69.50;;;;;;5112927;28;19907;-55
2023/10/01 02:03:37;;;;;;;;;;;20.10;69.50;;;;;;5113090;28;19976;-55
2023/10/01 02:06:05;;;;;;;;;;;20.10;69.60;;;;;;5112967;28;20002;-53
2023/10/01 02:08:49;;;;;;;;;;;20.10;69.60;;;;;;5112975;28;19908;-55
2023/10/01 02:11:15;;;;;;;;;;;20.10;69.60;;;;;;5112876;28;20416;-55
2023/10/01 02:13:41;;;;;;;;;;;20.10;69.80;;;;;;5112888;28;19907;-55
2023/10/01 02:16:18;;;;;;;;;;;20.10;70.50;;;;;;5094785;28;19908;-54
2023/10/01 02:18:55;;;;;;;;;;;20.10;69.80;;;;;;5113346;28;19919;-53
2023/10/01 02:21:42;;;;;;;;;;;20.10;69.80;;;;;;5098672;28;19907;-55
2023/10/01 02:24:11;;;;;;;;;;;20.10;69.90;;;;;;5107968;28;19908;-54
2023/10/01 02:26:38;;;;;;;;;;;20.10;70.00;;;;;;5116572;28;19914;-55
2023/10/01 02:29:05;;;;;;;;;;;20.10;70.10;;;;;;5116431;28;19911;-56
2023/10/01 02:31:39;;;;;;;;;;;20.10;70.10;;;;;;5116471;28;19952;-54
2023/10/01 02:34:08;;;;;;;;;;;20.10;70.90;;;;;;5098067;28;20329;-55
2023/10/01 02:36:36;;;;;;;;;;;20.00;70.00;;;;;;5116307;28;19915;-54
2023/10/01 02:39:10;;;;;;;;;;;20.10;70.20;;;;;;5097851;28;19912;-55
2023/10/01 02:41:38;;;;;;;;;;;20.10;70.10;;;;;;5123048;28;20329;-54
2023/10/01 02:44:04;;;;;;;;;;;20.00;70.00;;;;;;5116194;28;19998;-54
2023/10/01 02:46:29;;;;;;;;;;;20.00;70.00;;;;;;5097914;28;19947;-55
2023/10/01 02:48:59;;;;;;;;;;;20.00;70.00;;;;;;5116068;28;19935;-55
2023/10/01 02:51:37;;;;;;;;;;;20.00;70.00;;;;;;5115878;28;20395;-54
2023/10/01 02:54:04;;;;;;;;;;;20.00;70.00;;;;;;5116085;28;20350;-54
2023/10/01 02:56:33;;;;;;;;;;;20.00;70.00;;;;;;5115858;28;19908;-55
2023/10/01 02:59:18;;;;;;;;;;;20.00;69.90;;;;;;5115866;28;19911;-55
2023/10/01 03:01:45;;;;;;;;;;;20.00;70.00;;;;;;5115734;28;19919;-54
2023/10/01 03:04:15;;;;;;;;;;;20.00;70.00;;;;;;5097557;28;20389;-55
2023/10/01 03:06:47;;;;;;;;;;;20.00;70.00;;;;;;5115669;28;19939;-55
2023/10/01 03:09:22;;;;;;;;;;;20.00;70.00;;;;;;5122397;28;19943;-55
2023/10/01 03:11:53;;;;;;;;;;;20.00;70.00;;;;;;5115626;28;20315;-54
2023/10/01 03:14:26;;;;;;;;;;;20.00;70.10;;;;;;5101408;28;19912;-55
2023/10/01 03:16:54;;;;;;;;;;;20.00;70.10;;;;;;5122330;28;19923;-55
2023/10/01 03:19:26;;;;;;;;;;;20.00;70.10;;;;;;5115399;28;19919;-54
2023/10/01 03:24:38;;;;;;;;;;;20.00;70.30;;;;;;5122475;28;19968;-54
2023/10/01 03:27:18;;;;;;;;;;;20.00;70.30;;;;;;5115344;28;19912;-54
2023/10/01 03:29:45;;;;;;;;;;;20.00;70.30;;;;;;5106126;28;19950;-55
2023/10/01 03:32:28;;;;;;;;;;;20.00;70.30;;;;;;5096388;28;20007;-54
2023/10/01 03:35:03;;;;;;;;;;;19.90;70.30;;;;;;5115281;28;20271;-54
2023/10/01 03:37:29;;;;;;;;;;;20.00;70.40;;;;;;5104756;28;19930;-55
2023/10/01 03:40:05;;;;;;;;;;;20.00;70.30;;;;;;5114884;28;19912;-54
2023/10/01 03:42:33;;;;;;;;;;;19.90;70.30;;;;;;5096697;28;19907;-54
2023/10/01 03:47:36;;;;;;;;;;;20.00;70.40;;;;;;5121719;28;20368;-56
2023/10/01 03:50:03;;;;;;;;;;;19.90;70.30;;;;;;5096602;28;19994;-54
2023/10/01 03:52:29;;;;;;;;;;;20.00;71.30;;;;;;5114596;28;20393;-54
2023/10/01 03:57:23;;;;;;;;;;;19.90;70.30;;;;;;5115082;28;19919;-55
2023/10/01 03:59:52;;;;;;;;;;;19.90;70.40;;;;;;5114596;28;19912;-55
2023/10/01 04:03:06;;;;;;;;;;;19.90;70.50;;;;;;5096940;28;19908;-55
2023/10/01 04:05:21;;;;;;;;;;;19.90;70.50;;;;;;5092354;28;19908;-55
2023/10/01 04:07:47;;;;;;;;;;;19.90;70.50;;;;;;5096133;28;19942;-55
2023/10/01 04:10:28;;;;;;;;;;;19.90;70.60;;;;;;5114420;28;19916;-54
2023/10/01 04:12:54;;;;;;;;;;;19.90;70.50;;;;;;5114455;28;19907;-55
2023/10/01 04:15:29;;;;;;;;;;;19.90;70.50;;;;;;5114332;28;20417;-55
2023/10/01 04:20:48;;;;;;;;;;;19.90;70.50;;;;;;5114281;28;20340;-55
2023/10/01 04:23:21;;;;;;;;;;;19.90;70.50;;;;;;5114275;28;19907;-54
2023/10/01 04:25:47;;;;;;;;;;;19.90;70.50;;;;;;5114120;28;19948;-55
2023/10/01 04:28:13;;;;;;;;;;;19.90;70.50;;;;;;5114212;28;19919;-54
2023/10/01 04:30:41;;;;;;;;;;;19.90;70.60;;;;;;5095856;28;19908;-55
2023/10/01 04:33:22;;;;;;;;;;;19.90;70.60;;;;;;5114085;28;19915;-55
2023/10/01 04:35:58;;;;;;;;;;;19.90;70.60;;;;;;5114104;28;20368;-55
2023/10/01 04:38:28;;;;;;;;;;;19.90;70.70;;;;;;5113964;28;19923;-54
2023/10/01 04:40:57;;;;;;;;;;;19.90;70.70;;;;;;5114153;28;19908;-54
2023/10/01 04:43:26;;;;;;;;;;;19.90;70.70;;;;;;5094975;28;19908;-55
2023/10/01 04:45:52;;;;;;;;;;;19.90;70.80;;;;;;5113867;28;19915;-54
2023/10/01 04:48:24;;;;;;;;;;;19.90;70.80;;;;;;5113777;28;19908;-55
2023/10/01 04:50:50;;;;;;;;;;;19.80;70.80;;;;;;5113616;28;19959;-54
2023/10/01 04:53:19;;;;;;;;;;;19.80;70.80;;;;;;5113824;28;20332;-55
2023/10/01 04:55:57;;;;;;;;;;;19.80;70.80;;;;;;5113758;28;20583;-54
2023/10/01 04:58:23;;;;;;;;;;;19.80;70.80;;;;;;5120586;28;19918;-55
2023/10/01 05:00:49;;;;;;;;;;;19.80;70.90;;;;;;5113659;28;20375;-54
2023/10/01 05:03:15;;;;;;;;;;;19.80;71.00;;;;;;5113490;28;19915;-54
2023/10/01 05:05:42;;;;;;;;;;;19.80;70.90;;;;;;5113578;28;19911;-55
2023/10/01 05:08:08;;;;;;;;;;;19.70;70.90;;;;;;5113544;28;20355;-55
2023/10/01 05:10:50;;;;;;;;;;;19.80;71.10;;;;;;5113542;28;19943;-55
2023/10/01 05:13:19;;;;;;;;;;;19.80;71.00;;;;;;5095204;28;19912;-55
2023/10/01 05:15:57;;;;;;;;;;;19.80;71.00;;;;;;5113411;28;20287;-55
2023/10/01 05:18:26;;;;;;;;;;;19.70;71.00;;;;;;5113345;28;20377;-55
2023/10/01 05:21:04;;;;;;;;;;;19.80;71.10;;;;;;5113374;28;20283;-54
2023/10/01 05:23:29;;;;;;;;;;;19.80;71.10;;;;;;5113471;28;19952;-55
2023/10/01 05:25:56;;;;;;;;;;;19.70;71.00;;;;;;5113284;28;19912;-53
2023/10/01 05:28:24;;;;;;;;;;;19.80;71.20;;;;;;5113362;28;19908;-54
2023/10/01 05:30:56;;;;;;;;;;;19.80;71.10;;;;;;5113416;28;20355;-54
2023/10/01 05:33:24;;;;;;;;;;;19.70;71.10;;;;;;5120156;28;19915;-54
2023/10/01 05:35:52;;;;;;;;;;;19.80;71.20;;;;;;5113240;28;19908;-55
2023/10/01 05:38:19;;;;;;;;;;;19.70;71.10;;;;;;5113147;28;19912;-55
2023/10/01 05:40:44;;;;;;;;;;;19.80;71.20;;;;;;5113137;28;19924;-54
2023/10/01 05:43:15;;;;;;;;;;;19.70;71.10;;;;;;5113245;28;20360;-54
2023/10/01 05:45:50;;;;;;;;;;;19.80;71.20;;;;;;5120063;28;19912;-55
2023/10/01 05:48:19;;;;;;;;;;;19.80;71.20;;;;;;5113217;28;19977;-54
2023/10/01 05:50:45;;;;;;;;;;;19.70;71.10;;;;;;5112879;28;19908;-55
2023/10/01 05:53:13;;;;;;;;;;;19.80;71.20;;;;;;5095171;28;19908;-55
2023/10/01 05:55:39;;;;;;;;;;;19.70;71.90;;;;;;5098612;28;19987;-54
2023/10/01 05:58:13;;;;;;;;;;;19.70;71.20;;;;;;5116932;28;19966;-55
2023/10/01 06:00:45;;;;;;;;;;;19.70;71.20;;;;;;5117128;28;19934;-54
2023/10/01 06:03:17;;;;;;;;;;;19.70;71.20;;;;;;5116927;28;19908;-54
2023/10/01 06:05:46;;;;;;;;;;;19.70;71.20;;;;;;5116995;28;19919;-55
2023/10/01 06:08:17;;;;;;;;;;;19.70;71.20;;;;;;5117172;28;19923;-55
2023/10/01 06:10:59;;;;;;;;;;;19.70;71.20;;;;;;5116747;28;20287;-54
2023/10/01 06:13:25;;;;;;;;;;;19.70;71.30;;;;;;5122749;28;19920;-54
2023/10/01 06:15:52;;;;;;;;;;;19.70;71.40;;;;;;5116730;28;20325;-55
2023/10/01 06:18:18;;;;;;;;;;;19.70;71.40;;;;;;5116609;28;19961;-55
2023/10/01 06:20:44;;;;;;;;;;;19.70;71.40;;;;;;5116663;28;20338;-55
2023/10/01 06:23:10;;;;;;;;;;;19.70;71.40;;;;;;5116655;28;19931;-55
2023/10/01 06:25:40;;;;;;;;;;;19.70;71.40;;;;;;5106026;28;19912;-55
2023/10/01 06:28:09;;;;;;;;;;;19.70;71.40;;;;;;5096101;28;20368;-55
2023/10/01 06:30:40;;;;;;;;;;;19.70;71.40;;;;;;5077909;28;19912;-53
2023/10/01 06:33:09;;;;;;;;;;;19.70;71.40;;;;;;5096075;28;19909;-55
2023/10/01 06:35:35;;;;;;;;;;;19.70;71.40;;;;;;5095986;28;20398;-54
2023/10/01 06:38:04;;;;;;;;;;;19.70;71.30;;;;;;5078036;28;20233;-55
2023/10/01 06:40:30;;;;;;;;;;;19.70;71.40;;;;;;5095857;28;19966;-54
2023/10/01 06:42:58;;;;;;;;;;;19.70;71.30;;;;;;5095855;28;19908;-54
2023/10/01 06:45:38;;;;;;;;;;;19.70;71.40;;;;;;5078108;28;19913;-54
2023/10/01 06:48:08;;;;;;;;;;;19.70;71.40;;;;;;5102610;28;19912;-55
2023/10/01 06:50:36;;;;;;;;;;;19.70;71.30;;;;;;5095735;28;19916;-54
2023/10/01 06:53:03;;;;;;;;;;;19.70;71.30;;;;;;5095500;28;19973;-55
2023/10/01 06:55:30;;;;;;;;;;;19.70;71.30;;;;;;5105847;28;19915;-55
2023/10/01 06:57:56;;;;;;;;;;;19.70;71.30;;;;;;5115989;28;20382;-55
2023/10/01 07:00:22;;;;;;;;;;;19.70;71.30;;;;;;5115812;28;19912;-55
2023/10/01 07:02:49;;;;;;;;;;;19.70;71.30;;;;;;5115881;28;19911;-54
2023/10/01 07:05:20;;;;;;;;;;;19.70;71.30;;;;;;5115058;28;19908;-53
2023/10/01 07:07:45;;;;;;;;;;;19.70;71.40;;;;;;5122584;28;19908;-54
2023/10/01 07:10:11;;;;;;;;;;;19.70;71.40;;;;;;5115749;28;19931;-54
2023/10/01 07:12:38;;;;;;;;;;;19.70;71.40;;;;;;5115687;28;19934;-54
2023/10/01 07:15:04;;;;;;;;;;;19.70;71.40;;;;;;5115448;28;20367;-55
2023/10/01 07:17:31;;;;;;;;;;;19.70;71.30;;;;;;5115619;28;19950;-54
2023/10/01 07:20:00;;;;;;;;;;;19.70;71.30;;;;;;5115377;28;19912;-55
2023/10/01 07:22:32;;;;;;;;;;;19.60;71.20;;;;;;5097097;28;19915;-54
2023/10/01 07:24:59;;;;;;;;;;;19.60;71.20;;;;;;5110201;28;19908;-55
2023/10/01 07:27:24;;;;;;;;;;;19.60;71.20;;;;;;5094983;28;19912;-55
2023/10/01 07:29:54;;;;;;;;;;;19.70;71.30;;;;;;5093571;28;19914;-54
2023/10/01 07:32:20;;;;;;;;;;;19.60;71.10;;;;;;5094977;28;20229;-54
2023/10/01 07:34:48;;;;;;;;;;;19.60;71.10;;;;;;5094802;28;19908;-55
2023/10/01 07:37:23;;;;;;;;;;;19.60;71.10;;;;;;5094854;28;20332;-55
2023/10/01 07:40:08;;;;;;;;;;;19.70;71.20;;;;;;5101484;28;20403;-55
2023/10/01 07:42:46;;;;;;;;;;;19.70;71.20;;;;;;5078191;28;19958;-54
2023/10/01 07:45:15;;;;;;;;;;;19.70;71.10;;;;;;5101543;28;20372;-54
2023/10/01 07:47:42;;;;;;;;;;;19.70;71.10;;;;;;5094666;28;19908;-54
2023/10/01 07:50:12;;;;;;;;;;;19.70;71.00;;;;;;5094443;28;19915;-54
2023/10/01 07:52:40;;;;;;;;;;;19.70;71.00;;;;;;5086439;28;20301;-55
2023/10/01 07:55:35;;;;;;;;;;;19.70;71.00;;;;;;5060031;28;19998;-54
2023/10/01 08:03:55;;;;;;;;;;;19.70;71.00;;;;;;5073002;28;19931;-55
2023/10/01 08:06:29;;;;;;;;;;;19.70;71.00;;;;;;5073978;28;20389;-54
2023/10/01 08:08:57;;;;;;;;;;;19.60;70.80;;;;;;5080705;28;19909;-54
2023/10/01 08:14:07;;;;;;;;;;;19.70;71.00;;;;;;5073892;28;19931;-55
2023/10/01 08:16:47;;;;;;;;;;;19.70;71.00;;;;;;5073717;28;19908;-54
2023/10/01 08:19:13;;;;;;;;;;;19.60;70.90;;;;;;5080495;28;19962;-55
2023/10/01 08:21:39;;;;;;;;;;;19.70;71.00;;;;;;5073753;28;19971;-55
2023/10/01 08:24:09;;;;;;;;;;;19.70;71.00;;;;;;5073606;28;20364;-54
2023/10/01 08:26:49;;;;;;;;;;;19.60;70.90;;;;;;5080287;28;19916;-55
2023/10/01 08:29:15;;;;;;;;;;;19.60;71.00;;;;;;5073612;28;20417;-55
2023/10/01 08:32:07;;;;;;;;;;;19.70;71.10;;;;;;5073550;28;20002;-55
2023/10/01 08:34:28;;;;;;;;;;;19.70;71.10;;;;;;5073541;28;20387;-53
2023/10/01 08:36:57;;;;;;;;;;;19.70;71.10;;;;;;5073488;28;19908;-55
2023/10/01 08:39:47;;;;;;;;;;;19.70;71.10;;;;;;5073402;28;19916;-55
2023/10/01 08:42:13;;;;;;;;;;;19.70;71.10;;;;;;5073453;28;19955;-55
2023/10/01 08:44:49;;;;;;;;;;;19.60;71.00;;;;;;5073418;28;19908;-54
2023/10/01 08:47:21;;;;;;;;;;;19.60;71.00;;;;;;5073385;28;19995;-55
2023/10/01 08:49:51;;;;;;;;;;;19.60;70.90;;;;;;5073301;28;20332;-54
2023/10/01 08:52:19;;;;;;;;;;;19.60;70.80;;;;;;5086805;28;19923;-55
2023/10/01 08:54:45;;;;;;;;;;;19.60;70.80;;;;;;5097490;28;19918;-54
2023/10/01 08:57:17;;;;;;;;;;;19.60;70.70;;;;;;5113691;28;19912;-55
2023/10/01 08:59:45;;;;;;;;;;;19.60;70.60;;;;;;5095301;28;19911;-55
2023/10/01 09:02:15;;;;;;;;;;;19.70;70.60;;;;;;5113824;28;20386;-55
2023/10/01 09:04:48;;;;;;;;;;;19.70;70.50;;;;;;5113900;28;20393;-55
2023/10/01 09:07:20;;;;;;;;;;;19.70;70.30;;;;;;5113589;28;19907;-54
2023/10/01 09:10:07;;;;;;;;;;;19.60;70.30;;;;;;5096359;28;20390;-55
2023/10/01 09:12:45;;;;;;;;;;;19.70;70.30;;;;;;5113678;28;19940;-54
2023/10/01 09:15:27;;;;;;;;;;;19.70;70.20;;;;;;5114474;28;19908;-55
2023/10/01 09:17:59;;;;;;;;;;;19.70;70.20;;;;;;5113564;28;19908;-55
2023/10/01 09:20:38;;;;;;;;;;;19.70;70.20;;;;;;5113284;28;20002;-55
2023/10/01 09:23:05;;;;;;;;;;;19.70;70.20;;;;;;5113291;28;20375;-55
2023/10/01 09:25:33;;;;;;;;;;;19.70;70.10;;;;;;5095116;28;19927;-55
2023/10/01 09:28:19;;;;;;;;;;;19.70;70.10;;;;;;5113390;28;19908;-54
2023/10/01 09:31:26;;;;;;;;;;;19.70;70.10;;;;;;5102475;28;19908;-55
2023/10/01 09:33:48;;;;;;;;;;;19.70;70.10;;;;;;5117329;28;19908;-54
2023/10/01 09:36:45;;;;;;;;;;;19.70;70.00;;;;;;5117503;28;19919;-54
2023/10/01 09:39:13;;;;;;;;;;;19.70;70.00;;;;;;5093046;28;19912;-55
2023/10/01 09:41:40;;;;;;;;;;;19.70;70.00;;;;;;5099020;28;19908;-55
2023/10/01 09:44:07;;;;;;;;;;;19.70;70.00;;;;;;5099169;28;20287;-55
2023/10/01 09:46:34;;;;;;;;;;;19.70;70.10;;;;;;5099272;28;19915;-54
2023/10/01 09:49:02;;;;;;;;;;;19.70;70.10;;;;;;5117068;28;19933;-55
2023/10/01 09:51:31;;;;;;;;;;;19.70;70.10;;;;;;5099060;28;19934;-54
2023/10/01 09:54:02;;;;;;;;;;;19.60;70.00;;;;;;5099395;28;19908;-54
2023/10/01 09:57:08;;;;;;;;;;;19.70;70.10;;;;;;5099609;28;19908;-53
2023/10/01 09:59:20;;;;;;;;;;;19.60;70.00;;;;;;5099767;28;19950;-55
2023/10/01 10:01:45;;;;;;;;;;;19.60;70.10;;;;;;5116826;28;19956;-55
2023/10/01 10:04:11;;;;;;;;;;;19.60;70.20;;;;;;5116956;28;19908;-54
2023/10/01 10:06:39;;;;;;;;;;;19.60;70.20;;;;;;5117153;28;20030;-55
2023/10/01 10:09:07;;;;;;;;;;;19.60;70.30;;;;;;5098433;28;19936;-55
2023/10/01 10:11:36;;;;;;;;;;;19.60;70.50;;;;;;5116708;28;19908;-54
2023/10/01 10:14:28;;;;;;;;;;;19.60;70.50;;;;;;5116352;28;20299;-54
2023/10/01 10:16:57;;;;;;;;;;;19.60;70.60;;;;;;5102697;28;19935;-55
2023/10/01 10:19:22;;;;;;;;;;;19.60;70.60;;;;;;5116580;28;20371;-55
2023/10/01 10:24:29;;;;;;;;;;;19.70;70.70;;;;;;5123576;28;19915;-55
2023/10/01 10:26:57;;;;;;;;;;;19.70;71.60;;;;;;5116379;28;19955;-54
2023/10/01 10:29:23;;;;;;;;;;;19.60;70.70;;;;;;5116465;28;19907;-54
2023/10/01 10:32:02;;;;;;;;;;;19.70;70.80;;;;;;5116336;28;19982;-54
2023/10/01 10:34:36;;;;;;;;;;;19.70;70.90;;;;;;5098189;28;19908;-56
2023/10/01 10:37:06;;;;;;;;;;;19.70;70.90;;;;;;5123033;28;19908;-54
2023/10/01 10:39:48;;;;;;;;;;;19.70;71.00;;;;;;5115979;28;20291;-55
2023/10/01 10:42:27;;;;;;;;;;;19.70;71.00;;;;;;5115533;28;20111;-54
2023/10/01 10:45:19;;;;;;;;;;;19.70;71.90;;;;;;5123059;28;20041;-54
2023/10/01 10:48:03;;;;;;;;;;;19.70;71.10;;;;;;5116177;28;19957;-54
2023/10/01 10:50:44;;;;;;;;;;;19.70;71.10;;;;;;5116075;28;19908;-53
2023/10/01 10:53:16;;;;;;;;;;;19.70;71.20;;;;;;5116114;28;19981;-54
2023/10/01 10:56:02;;;;;;;;;;;19.70;71.20;;;;;;5115999;28;19914;-54
2023/10/01 10:58:39;;;;;;;;;;;19.70;71.30;;;;;;5115845;28;19908;-54
2023/10/01 11:01:22;;;;;;;;;;;19.70;71.30;;;;;;5105167;28;19999;-55
2023/10/01 11:03:49;;;;;;;;;;;19.70;71.40;;;;;;5115728;28;19954;-55
2023/10/01 11:06:25;;;;;;;;;;;19.70;71.50;;;;;;5115934;28;19919;-55
2023/10/01 11:08:51;;;;;;;;;;;19.70;71.40;;;;;;5115662;28;19912;-54
2023/10/01 11:11:29;;;;;;;;;;;19.70;71.50;;;;;;5115507;28;19916;-55
2023/10/01 11:14:00;;;;;;;;;;;19.70;71.50;;;;;;5115487;28;19943;-55
2023/10/01 11:16:37;;;;;;;;;;;19.70;71.50;;;;;;5115601;28;19908;-55
2023/10/01 11:19:12;;;;;;;;;;;19.70;71.40;;;;;;5097121;28;19973;-54
2023/10/01 11:22:00;;;;;;;;;;;19.70;71.40;;;;;;5115383;28;19998;-55
2023/10/01 11:24:31;;;;;;;;;;;19.70;71.40;;;;;;5081493;28;19915;-54
2023/10/01 11:27:11;;;;;;;;;;;19.70;71.50;;;;;;5115108;28;20335;-53
2023/10/01 11:29:39;;;;;;;;;;;19.70;71.50;;;;;;5097497;28;19991;-54
2023/10/01 11:32:05;;;;;;;;;;;19.70;71.60;;;;;;5115202;28;19915;-54
2023/10/01 11:34:43;;;;;;;;;;;19.70;71.90;;;;;;5115231;28;19912;-54
2023/10/01 11:37:15;;;;;;;;;;;19.70;72.30;;;;;;5096802;28;19911;-55
2023/10/01 11:39:49;;;;;;;;;;;19.70;72.50;;;;;;5114928;28;19968;-54
2023/10/01 11:42:35;;;;;;;;;;;19.70;72.60;;;;;;5122090;28;20030;-55
2023/10/01 11:45:28;;;;;;;;;;;19.70;72.80;;;;;;5115080;28;19908;-55
2023/10/01 11:48:05;;;;;;;;;;;19.70;72.80;;;;;;5121802;28;19912;-54
2023/10/01 11:50:31;;;;;;;;;;;19.70;72.90;;;;;;5114803;28;19908;-53
2023/10/01 11:53:05;;;;;;;;;;;19.70;73.00;;;;;;5114214;28;19930;-54
2023/10/01 11:55:33;;;;;;;;;;;19.70;73.00;;;;;;5114770;28;19908;-55
2023/10/01 11:57:59;;;;;;;;;;;19.70;73.40;;;;;;5114601;28;19908;-54
2023/10/01 12:03:11;;;;;;;;;;;19.70;74.60;;;;;;5114527;28;20014;-53
2023/10/01 12:05:41;;;;;;;;;;;19.70;74.90;;;;;;5114612;28;19973;-54
2023/10/01 12:08:14;;;;;;;;;;;19.70;75.10;;;;;;5114533;28;19908;-54
2023/10/01 12:10:40;;;;;;;;;;;19.70;75.40;;;;;;5097063;28;20387;-55
2023/10/01 12:13:10;;;;;;;;;;;19.70;75.40;;;;;;5114300;28;19907;-55
2023/10/01 12:15:51;;;;;;;;;;;19.70;75.70;;;;;;5114297;28;19908;-54
2023/10/01 12:18:17;;;;;;;;;;;19.70;75.90;;;;;;5114437;28;19907;-54
2023/10/01 12:20:55;;;;;;;;;;;19.70;75.90;;;;;;5114212;28;19915;-54
2023/10/01 12:23:22;;;;;;;;;;;19.70;76.20;;;;;;5114287;28;19908;-55
2023/10/01 12:28:29;;;;;;;;;;;19.80;76.80;;;;;;5105420;28;19957;-55
2023/10/01 12:30:58;;;;;;;;;;;19.80;76.90;;;;;;5113976;28;19912;-54
2023/10/01 12:33:24;;;;;;;;;;;19.80;76.90;;;;;;5096262;28;19912;-54
2023/10/01 12:35:49;;;;;;;;;;;19.80;77.30;;;;;;5113906;28;19908;-54
2023/10/01 12:40:40;;;;;;;;;;;19.70;77.50;;;;;;5114233;28;19916;-55
2023/10/01 12:43:36;;;;;;;;;;;19.80;77.90;;;;;;5113796;28;19947;-53
2023/10/01 12:45:54;;;;;;;;;;;19.80;78.10;;;;;;5113607;28;19919;-53
2023/10/01 12:48:20;;;;;;;;;;;19.70;78.30;;;;;;5113696;28;19908;-53
2023/10/01 12:50:59;;;;;;;;;;;19.70;78.40;;;;;;5113466;28;19958;-53
2023/10/01 12:53:26;;;;;;;;;;;19.80;78.50;;;;;;5095386;28;20237;-53
2023/10/01 12:55:51;;;;;;;;;;;19.70;78.40;;;;;;5113653;28;19958;-53
2023/10/01 12:58:29;;;;;;;;;;;19.80;78.50;;;;;;5113746;28;19935;-53
2023/10/01 13:00:56;;;;;;;;;;;19.80;78.50;;;;;;5095298;28;19912;-53
2023/10/01 13:03:23;;;;;;;;;;;19.80;78.50;;;;;;5112841;28;19908;-54
2023/10/01 13:05:51;;;;;;;;;;;19.80;78.50;;;;;;5095223;28;19908;-54
2023/10/01 13:08:27;;;;;;;;;;;19.80;78.50;;;;;;5113368;28;20375;-54
2023/10/01 13:10:58;;;;;;;;;;;19.80;78.50;;;;;;5120343;28;19911;-53
2023/10/01 13:13:30;;;;;;;;;;;19.80;78.30;;;;;;5113290;28;19947;-53
2023/10/01 13:15:58;;;;;;;;;;;19.80;78.50;;;;;;5113430;28;19953;-54
2023/10/01 13:18:28;;;;;;;;;;;19.80;78.50;;;;;;5113389;28;19908;-54
2023/10/01 13:23:28;;;;;;;;;;;19.80;78.50;;;;;;5113619;28;19998;-54
2023/10/01 13:26:05;;;;;;;;;;;19.80;78.50;;;;;;5113189;28;19908;-54
2023/10/01 13:28:43;;;;;;;;;;;19.80;78.60;;;;;;5113278;28;19946;-54
2023/10/01 13:32:02;;;;;;;;;;;19.80;78.70;;;;;;5119988;28;19907;-54
2023/10/01 13:37:12;;;;;;;;;;;19.80;78.90;;;;;;5120050;28;20403;-53
2023/10/01 14:09:47;;;;;;;;;;;19.80;81.10;;;;;;5112868;28;20413;-53
2023/10/01 14:12:10;;;;;;;;;;;19.80;81.20;;;;;;5112704;28;19912;-55
2023/10/01 14:14:35;;;;;;;;;;;19.80;81.40;;;;;;5113216;28;20281;-53
2023/10/01 14:17:13;;;;;;;;;;;19.80;81.50;;;;;;5098271;28;20295;-53
2023/10/01 14:19:41;;;;;;;;;;;19.80;81.60;;;;;;5116426;28;19912;-53
2023/10/01 14:22:19;;;;;;;;;;;19.80;81.60;;;;;;5116608;28;19952;-53
2023/10/01 14:24:45;;;;;;;;;;;19.80;81.50;;;;;;5123189;28;19911;-53
2023/10/01 14:27:24;;;;;;;;;;;19.80;81.60;;;;;;5116508;28;19915;-53
2023/10/01 14:30:00;;;;;;;;;;;19.80;81.70;;;;;;5098056;28;19915;-55
2023/10/01 14:32:34;;;;;;;;;;;19.80;81.60;;;;;;5106323;28;20359;-54
2023/10/01 14:35:15;;;;;;;;;;;19.80;81.60;;;;;;5116308;28;19959;-54
2023/10/01 14:37:55;;;;;;;;;;;19.80;81.60;;;;;;5116317;28;19915;-54
2023/10/01 14:40:24;;;;;;;;;;;19.80;81.90;;;;;;5099775;28;19912;-53
2023/10/01 14:42:58;;;;;;;;;;;19.80;81.90;;;;;;5116061;28;19908;-54
2023/10/01 14:45:32;;;;;;;;;;;19.80;81.80;;;;;;5122915;28;19956;-54
2023/10/01 14:48:07;;;;;;;;;;;19.80;81.90;;;;;;5116045;28;19923;-53
2023/10/01 14:50:39;;;;;;;;;;;19.80;81.80;;;;;;5097629;28;20423;-54
2023/10/01 14:53:12;;;;;;;;;;;19.80;82.00;;;;;;5122847;28;20295;-53
2023/10/01 14:55:40;;;;;;;;;;;19.80;81.90;;;;;;5115982;28;19914;-54
2023/10/01 14:58:12;;;;;;;;;;;19.80;82.10;;;;;;5115775;28;19908;-55
2023/10/01 15:00:49;;;;;;;;;;;19.80;82.00;;;;;;5097422;28;19912;-53
2023/10/01 15:03:22;;;;;;;;;;;19.80;82.00;;;;;;5105990;28;19961;-54
2023/10/01 15:05:48;;;;;;;;;;;19.90;82.20;;;;;;5097808;28;19915;-54
2023/10/01 15:08:15;;;;;;;;;;;19.80;82.00;;;;;;5115752;28;19926;-54
2023/10/01 15:10:49;;;;;;;;;;;19.90;82.30;;;;;;5115637;28;19912;-53
2023/10/01 15:13:21;;;;;;;;;;;19.90;82.20;;;;;;5122144;28;20002;-53
2023/10/01 15:15:47;;;;;;;;;;;19.90;82.40;;;;;;5104610;28;20265;-53
2023/10/01 15:18:18;;;;;;;;;;;19.90;82.20;;;;;;5115609;28;20007;-54
2023/10/01 15:20:49;;;;;;;;;;;19.90;82.50;;;;;;5115538;28;20391;-54
2023/10/01 15:23:16;;;;;;;;;;;19.90;82.20;;;;;;5122352;28;19912;-54
2023/10/01 15:25:42;;;;;;;;;;;19.90;82.20;;;;;;5115343;28;19914;-55
2023/10/01 15:28:09;;;;;;;;;;;19.90;82.30;;;;;;5114517;28;19998;-54
2023/10/01 15:30:38;;;;;;;;;;;19.90;82.20;;;;;;5115394;28;20349;-54
2023/10/01 15:33:13;;;;;;;;;;;19.90;82.20;;;;;;5115287;28;19908;-54
2023/10/01 15:35:43;;;;;;;;;;;19.90;82.20;;;;;;5115467;28;19957;-53
2023/10/01 15:38:09;;;;;;;;;;;19.90;82.40;;;;;;5115144;28;20268;-54
2023/10/01 15:40:38;;;;;;;;;;;19.90;82.30;;;;;;5114997;28;19916;-54
2023/10/01 15:43:04;;;;;;;;;;;19.90;82.10;;;;;;5115038;28;19908;-54